createdAt,value
2023-01-19T00:01:29.406Z,2.22
2023-01-19T00:03:56.304Z,1.40
2023-01-19T00:06:23.306Z,1.15
2023-01-19T00:08:53.218Z,1.88
2023-01-19T00:11:20.289Z,1.00
2023-01-19T00:13:50.689Z,2.30
2023-01-19T00:16:19.076Z,1.63
2023-01-19T00:18:46.872Z,2.00
2023-01-19T00:21:14.911Z,4.82
2023-01-19T00:23:42.752Z,1.42
2023-01-19T00:26:10.833Z,4.03
2023-01-19T00:28:37.755Z,2.10
2023-01-19T00:31:07.178Z,2.55
2023-01-19T00:33:36.307Z,4.03
2023-01-19T00:36:03.821Z,4.07
2023-01-19T00:38:30.740Z,5.10
2023-01-19T00:40:57.645Z,3.45
2023-01-19T00:43:24.537Z,3.20
2023-01-19T00:45:51.548Z,0.98
2023-01-19T00:48:18.482Z,0.52
2023-01-19T00:50:45.324Z,0.52
2023-01-19T00:53:12.212Z,1.35
2023-01-19T00:55:39.084Z,0.65
2023-01-19T00:58:07.338Z,0.30
2023-01-19T01:00:34.178Z,0.85
2023-01-19T01:03:01.588Z,0.20
2023-01-19T01:05:28.730Z,0.70
2023-01-19T01:07:55.827Z,2.50
2023-01-19T01:10:25.586Z,1.48
2023-01-19T01:13:19.829Z,2.15
2023-01-19T01:15:39.465Z,1.52
2023-01-19T01:18:06.335Z,2.38
2023-01-19T01:20:35.192Z,1.42
2023-01-19T01:23:02.470Z,2.30
2023-01-19T01:25:31.214Z,1.30
2023-01-19T01:27:58.172Z,1.95
2023-01-19T01:30:25.124Z,0.98
2023-01-19T01:32:52.063Z,0.98
2023-01-19T01:35:19.023Z,1.77
2023-01-19T01:37:46.162Z,1.27
2023-01-19T01:40:16.666Z,0.75
2023-01-19T01:42:44.169Z,1.13
2023-01-19T01:45:26.060Z,2.25
2023-01-19T01:47:54.994Z,2.33
2023-01-19T01:50:29.192Z,1.50
2023-01-19T01:53:07.664Z,3.80
2023-01-19T01:55:42.184Z,7.65
2023-01-19T01:58:10.189Z,28.75
2023-01-19T02:00:56.701Z,38.45
2023-01-19T02:03:25.608Z,60.40
2023-01-19T02:05:57.653Z,76.85
2023-01-19T02:08:46.112Z,82.18
2023-01-19T02:11:35.044Z,73.80
2023-01-19T02:14:05.602Z,56.28
2023-01-19T02:16:32.967Z,23.50
2023-01-19T02:19:01.348Z,11.52
2023-01-19T02:21:38.313Z,5.75
2023-01-19T02:24:06.635Z,3.45
2023-01-19T02:26:44.819Z,7.03
2023-01-19T02:29:13.346Z,6.05
2023-01-19T02:31:41.319Z,8.30
2023-01-19T02:34:10.828Z,10.20
2023-01-19T02:36:46.262Z,9.88
2023-01-19T02:39:15.770Z,10.05
2023-01-19T02:41:52.467Z,8.63
2023-01-19T02:44:21.388Z,5.75
2023-01-19T02:46:53.197Z,4.63
2023-01-19T02:49:20.038Z,4.15
2023-01-19T02:51:47.045Z,5.45
2023-01-19T02:54:47.815Z,3.05
2023-01-19T02:57:29.885Z,3.60
2023-01-19T03:00:28.960Z,3.95
2023-01-19T03:03:02.110Z,2.80
2023-01-19T03:05:38.012Z,2.10
2023-01-19T03:08:30.255Z,3.22
2023-01-19T03:11:10.069Z,2.80
2023-01-19T03:13:47.728Z,2.35
2023-01-19T03:16:22.897Z,3.60
2023-01-19T03:18:56.555Z,4.35
2023-01-19T03:21:28.599Z,5.38
2023-01-19T03:24:01.924Z,6.45
2023-01-19T03:26:31.713Z,3.72
2023-01-19T03:29:02.336Z,6.07
2023-01-19T03:31:32.037Z,4.85
2023-01-19T03:34:07.204Z,2.78
2023-01-19T03:36:43.609Z,3.85
2023-01-19T03:39:12.427Z,2.67
2023-01-19T03:41:41.056Z,5.97
2023-01-19T03:44:08.923Z,2.00
2023-01-19T03:46:35.975Z,2.92
2023-01-19T03:49:02.917Z,2.70
2023-01-19T03:51:30.235Z,3.80
2023-01-19T03:53:57.127Z,3.03
2023-01-19T03:56:25.611Z,1.55
2023-01-19T03:58:52.631Z,4.63
2023-01-19T04:01:23.421Z,3.00
2023-01-19T04:03:51.470Z,7.22
2023-01-19T04:06:19.805Z,6.80
2023-01-19T04:08:51.859Z,6.30
2023-01-19T04:11:19.004Z,8.98
2023-01-19T04:13:45.997Z,12.07
2023-01-19T04:16:13.050Z,16.63
2023-01-19T04:18:42.290Z,19.75
2023-01-19T04:21:09.329Z,22.88
2023-01-19T04:23:36.220Z,19.20
2023-01-19T04:26:08.118Z,20.63
2023-01-19T04:28:37.187Z,25.02
2023-01-19T04:31:07.157Z,28.85
2023-01-19T04:33:34.466Z,32.17
2023-01-19T04:36:01.871Z,34.35
2023-01-19T04:38:28.845Z,33.25
2023-01-19T04:40:55.876Z,35.22
2023-01-19T04:43:24.045Z,31.90
2023-01-19T04:45:51.451Z,36.92
2023-01-19T04:48:19.473Z,41.15
2023-01-19T04:50:46.784Z,37.15
2023-01-19T04:53:14.615Z,38.97
2023-01-19T04:55:41.722Z,38.80
2023-01-19T04:58:08.824Z,44.70
2023-01-19T05:00:36.577Z,45.05
2023-01-19T05:03:03.833Z,38.70
2023-01-19T05:05:33.047Z,39.25
2023-01-19T05:08:00.009Z,38.78
2023-01-19T05:10:26.942Z,44.58
2023-01-19T05:12:53.853Z,46.15
2023-01-19T05:15:20.739Z,43.25
2023-01-19T05:17:48.119Z,44.50
2023-01-19T05:20:16.351Z,40.97
2023-01-19T05:22:48.678Z,44.60
2023-01-19T05:25:15.665Z,40.50
2023-01-19T05:27:43.095Z,39.03
2023-01-19T05:30:10.833Z,38.50
2023-01-19T05:32:37.686Z,42.03
2023-01-19T05:35:04.776Z,39.13
2023-01-19T05:37:34.211Z,39.78
2023-01-19T05:40:01.128Z,41.05
2023-01-19T05:42:30.786Z,39.83
2023-01-19T05:44:59.647Z,34.35
2023-01-19T05:47:29.740Z,38.35
2023-01-19T05:49:57.172Z,35.45
2023-01-19T05:52:25.210Z,35.17
2023-01-19T05:54:55.310Z,37.28
2023-01-19T05:57:22.811Z,34.70
2023-01-19T05:59:52.939Z,31.35
2023-01-19T06:02:28.665Z,34.93
2023-01-19T06:04:56.527Z,32.75
2023-01-19T06:07:24.457Z,29.73
2023-01-19T06:09:52.220Z,31.83
2023-01-19T06:12:19.694Z,36.70
2023-01-19T06:14:46.606Z,29.52
2023-01-19T06:17:13.534Z,33.08
2023-01-19T06:19:40.892Z,30.33
2023-01-19T06:22:08.561Z,29.63
2023-01-19T06:24:35.456Z,29.02
2023-01-19T06:27:03.097Z,31.58
2023-01-19T06:29:30.143Z,26.23
2023-01-19T06:31:57.245Z,33.22
2023-01-19T06:34:28.856Z,34.60
2023-01-19T06:36:56.759Z,27.90
2023-01-19T06:39:24.052Z,33.92
2023-01-19T06:41:51.487Z,28.58
2023-01-19T06:44:18.430Z,27.20
2023-01-19T06:46:45.447Z,27.13
2023-01-19T06:49:12.336Z,25.67
2023-01-19T06:51:39.208Z,29.20
2023-01-19T06:54:06.254Z,28.60
2023-01-19T06:56:33.246Z,25.55
2023-01-19T06:59:00.205Z,28.33
2023-01-19T07:01:27.157Z,26.65
2023-01-19T07:03:54.632Z,29.77
2023-01-19T07:06:21.551Z,34.95
2023-01-19T07:08:48.440Z,33.22
2023-01-19T07:11:25.464Z,32.75
2023-01-19T07:13:57.083Z,27.33
2023-01-19T07:16:26.783Z,23.02
2023-01-19T07:18:53.779Z,22.40
2023-01-19T07:21:21.246Z,26.13
2023-01-19T07:23:54.611Z,32.63
2023-01-19T07:26:22.186Z,33.83
2023-01-19T07:28:49.414Z,29.10
2023-01-19T07:31:19.570Z,28.02
2023-01-19T07:33:47.382Z,26.85
2023-01-19T07:36:14.286Z,24.63
2023-01-19T07:38:41.225Z,26.33
2023-01-19T07:41:10.797Z,20.95
2023-01-19T07:43:37.974Z,17.50
2023-01-19T07:46:08.706Z,22.63
2023-01-19T07:48:35.637Z,20.55
2023-01-19T07:51:18.030Z,16.63
2023-01-19T07:53:58.278Z,19.48
2023-01-19T07:56:27.859Z,17.97
2023-01-19T07:58:54.794Z,20.30
2023-01-19T08:01:23.347Z,21.63
2023-01-19T08:03:50.920Z,23.13
2023-01-19T08:06:23.925Z,20.17
2023-01-19T08:08:51.145Z,22.25
2023-01-19T08:11:18.184Z,19.40
2023-01-19T08:13:45.207Z,21.08
2023-01-19T08:16:12.162Z,18.35
2023-01-19T08:18:40.673Z,16.77
2023-01-19T08:21:10.085Z,20.52
2023-01-19T08:23:36.974Z,13.10
2023-01-19T08:26:35.930Z,12.27
2023-01-19T08:29:05.453Z,10.70
2023-01-19T08:31:34.906Z,14.85
2023-01-19T08:34:10.682Z,10.20
2023-01-19T08:36:37.561Z,13.27
2023-01-19T08:39:04.418Z,12.68
2023-01-19T08:41:31.323Z,12.82
2023-01-19T08:43:58.278Z,8.98
2023-01-19T08:46:25.227Z,11.20
2023-01-19T08:48:52.339Z,11.18
2023-01-19T08:51:22.452Z,11.35
2023-01-19T08:53:49.945Z,12.65
2023-01-19T08:56:19.019Z,11.30
2023-01-19T08:58:53.660Z,15.73
2023-01-19T09:01:30.322Z,9.15
2023-01-19T09:03:59.408Z,11.43
2023-01-19T09:06:26.335Z,7.65
2023-01-19T09:08:53.235Z,13.30
2023-01-19T09:11:20.557Z,15.25
2023-01-19T09:13:47.463Z,14.63
2023-01-19T09:16:16.008Z,14.18
2023-01-19T09:18:43.111Z,16.38
2023-01-19T09:21:10.081Z,16.60
2023-01-19T09:23:37.070Z,15.93
2023-01-19T09:26:07.409Z,16.20
2023-01-19T09:28:40.150Z,15.10
2023-01-19T09:31:08.906Z,17.92
2023-01-19T09:33:36.124Z,14.88
2023-01-19T09:36:05.666Z,14.13
2023-01-19T09:38:34.711Z,13.23
2023-01-19T09:41:02.063Z,9.57
2023-01-19T09:43:35.437Z,11.82
2023-01-19T09:46:05.937Z,13.93
2023-01-19T09:48:57.911Z,21.15
2023-01-19T09:51:32.927Z,15.93
2023-01-19T09:54:14.575Z,14.43
2023-01-19T09:56:45.325Z,14.90
2023-01-19T09:59:26.097Z,14.55
2023-01-19T10:02:05.168Z,17.10
2023-01-19T10:04:43.775Z,15.95
2023-01-19T10:07:48.649Z,18.67
2023-01-19T10:10:28.624Z,14.30
2023-01-19T10:13:22.645Z,10.93
2023-01-19T10:16:17.698Z,13.57
2023-01-19T10:18:51.565Z,11.65
2023-01-19T10:21:42.826Z,13.30
2023-01-19T10:24:16.697Z,11.48
2023-01-19T10:26:48.059Z,14.05
2023-01-19T10:29:24.141Z,15.05
2023-01-19T10:31:55.869Z,11.98
2023-01-19T10:34:23.961Z,14.18
2023-01-19T10:37:02.962Z,15.75
2023-01-19T10:39:34.862Z,12.40
2023-01-19T10:42:06.684Z,15.50
2023-01-19T10:44:37.857Z,10.90
2023-01-19T10:49:39.283Z,15.05
2023-01-19T10:52:37.204Z,16.10
2023-01-19T10:55:06.940Z,11.68
2023-01-19T10:57:43.516Z,25.60
2023-01-19T11:00:38.293Z,15.00
2023-01-19T11:03:24.641Z,12.85
2023-01-19T11:05:51.959Z,15.32
2023-01-19T11:08:37.145Z,17.38
2023-01-19T11:11:05.269Z,18.35
2023-01-19T11:13:32.612Z,18.67
2023-01-19T11:16:23.434Z,19.10
2023-01-19T11:18:54.484Z,17.52
2023-01-19T11:24:00.931Z,16.50
2023-01-19T11:26:40.835Z,28.88
2023-01-19T11:29:29.994Z,24.65
2023-01-19T11:32:11.135Z,27.20
2023-01-19T11:37:28.972Z,23.95
2023-01-19T11:40:00.430Z,30.13
2023-01-19T11:42:30.335Z,32.03
2023-01-19T11:45:17.978Z,29.75
2023-01-19T11:47:51.899Z,32.25
2023-01-19T11:50:30.874Z,26.60
2023-01-19T11:53:28.261Z,20.52
2023-01-19T11:56:03.155Z,24.83
2023-01-19T11:58:31.637Z,22.33
2023-01-19T12:01:06.355Z,24.45
2023-01-19T12:04:05.298Z,24.92
2023-01-19T12:06:35.918Z,23.45
2023-01-19T12:09:31.591Z,21.48
2023-01-19T12:12:21.816Z,20.52
2023-01-19T12:15:00.815Z,23.60
2023-01-19T12:17:32.227Z,24.10
2023-01-19T12:20:26.612Z,27.45
2023-01-19T12:23:18.391Z,25.35
2023-01-19T12:26:09.340Z,25.58
2023-01-19T12:28:44.300Z,19.83
2023-01-19T12:31:19.545Z,16.60
2023-01-19T12:33:47.509Z,19.17
2023-01-19T12:36:17.552Z,17.40
2023-01-19T12:39:04.445Z,16.23
2023-01-19T12:41:43.614Z,24.48
2023-01-19T12:44:16.047Z,18.95
2023-01-19T12:46:50.241Z,26.70
2023-01-19T12:49:31.750Z,19.17
2023-01-19T12:52:17.196Z,18.05
2023-01-19T12:54:53.201Z,18.67
2023-01-19T12:57:26.790Z,18.10
2023-01-19T12:59:58.840Z,22.05
2023-01-19T13:02:28.741Z,24.30
2023-01-19T13:05:33.959Z,21.88
2023-01-19T13:08:07.037Z,22.52
2023-01-19T13:11:12.507Z,20.38
2023-01-19T13:13:50.055Z,25.13
2023-01-19T13:16:19.879Z,24.15
2023-01-19T13:18:53.034Z,21.67
2023-01-19T13:21:55.148Z,26.63
2023-01-19T13:24:23.453Z,18.17
2023-01-19T13:26:50.375Z,20.02
2023-01-19T13:29:43.300Z,18.05
2023-01-19T13:32:17.714Z,22.75
2023-01-19T13:34:49.553Z,21.92
2023-01-19T13:37:26.355Z,16.52
2023-01-19T13:39:54.632Z,17.73
2023-01-19T13:42:28.469Z,16.80
2023-01-19T13:45:00.905Z,17.38
2023-01-19T13:47:43.817Z,19.45
2023-01-19T13:50:19.744Z,22.73
2023-01-19T13:52:46.644Z,22.70
2023-01-19T13:55:15.241Z,15.02
2023-01-19T13:57:46.653Z,16.98
2023-01-19T14:00:16.139Z,20.15
2023-01-19T14:02:56.224Z,22.55
2023-01-19T14:05:28.841Z,21.40
2023-01-19T14:08:13.720Z,19.20
2023-01-19T14:10:56.949Z,16.25
2023-01-19T14:13:29.947Z,23.25
2023-01-19T14:15:59.515Z,17.48
2023-01-19T14:18:36.162Z,17.27
2023-01-19T14:21:13.258Z,18.75
2023-01-19T14:23:50.022Z,16.50
2023-01-19T14:26:47.753Z,17.70
2023-01-19T14:29:32.796Z,19.90
2023-01-19T14:32:07.856Z,17.05
2023-01-19T14:35:04.720Z,22.10
2023-01-19T14:37:34.481Z,21.00
2023-01-19T14:40:14.959Z,18.45
2023-01-19T14:42:57.529Z,20.80
2023-01-19T14:45:33.171Z,22.05
2023-01-19T14:48:02.729Z,24.38
2023-01-19T14:50:35.520Z,23.80
2023-01-19T14:53:28.705Z,22.52
2023-01-19T14:56:05.149Z,20.77
2023-01-19T14:58:34.316Z,22.48
2023-01-19T15:01:01.805Z,26.52
2023-01-19T15:03:43.374Z,40.53
2023-01-19T15:06:17.694Z,27.13
2023-01-19T15:08:45.565Z,26.13
2023-01-19T15:11:24.863Z,23.88
2023-01-19T15:13:52.287Z,26.58
2023-01-19T15:16:19.542Z,27.50
2023-01-19T15:18:46.488Z,42.42
2023-01-19T15:21:20.204Z,28.23
2023-01-19T15:23:47.741Z,47.88
2023-01-19T15:26:18.034Z,29.02
2023-01-19T15:28:45.947Z,43.38
2023-01-19T15:31:17.739Z,35.45
2023-01-19T15:33:44.979Z,37.95
2023-01-19T15:36:17.947Z,38.10
2023-01-19T15:38:45.735Z,40.28
2023-01-19T15:41:27.311Z,33.42
2023-01-19T15:43:54.391Z,31.52
2023-01-19T15:46:22.494Z,34.80
2023-01-19T15:48:50.783Z,31.50
2023-01-19T15:51:21.154Z,37.88
2023-01-19T15:53:48.880Z,34.50
2023-01-19T15:56:18.298Z,30.00
2023-01-19T15:58:45.558Z,29.88
2023-01-19T16:01:14.741Z,37.88
2023-01-19T16:03:43.008Z,32.45
2023-01-19T16:06:10.863Z,41.40
2023-01-19T16:08:38.099Z,34.78
2023-01-19T16:11:15.859Z,35.55
2023-01-19T16:13:46.623Z,42.80
2023-01-19T16:16:19.650Z,38.67
2023-01-19T16:18:46.775Z,40.30
2023-01-19T16:21:13.856Z,48.00
2023-01-19T16:23:40.766Z,53.85
2023-01-19T16:26:23.267Z,42.55
2023-01-19T16:28:50.254Z,43.38
2023-01-19T16:31:17.192Z,49.88
2023-01-19T16:33:45.459Z,45.72
2023-01-19T16:36:26.380Z,41.60
2023-01-19T16:38:54.411Z,53.22
2023-01-19T16:41:21.722Z,55.63
2023-01-19T16:43:52.947Z,51.20
2023-01-19T16:46:30.021Z,57.67
2023-01-19T16:49:03.814Z,55.55
2023-01-19T16:51:32.172Z,58.63
2023-01-19T16:53:59.566Z,52.42
2023-01-19T16:56:26.545Z,57.95
2023-01-19T16:58:55.026Z,51.05
2023-01-19T17:01:23.164Z,50.60
2023-01-19T17:03:50.307Z,49.58
2023-01-19T17:06:20.205Z,52.58
2023-01-19T17:08:47.525Z,51.15
2023-01-19T17:11:26.799Z,42.35
2023-01-19T17:13:55.199Z,46.92
2023-01-19T17:16:26.785Z,44.97
2023-01-19T17:18:58.187Z,50.38
2023-01-19T17:21:27.939Z,50.17
2023-01-19T17:23:56.020Z,44.85
2023-01-19T17:26:28.824Z,38.65
2023-01-19T17:29:02.899Z,39.85
2023-01-19T17:31:32.557Z,43.50
2023-01-19T17:34:03.331Z,43.00
2023-01-19T17:36:31.520Z,39.55
2023-01-19T17:39:00.352Z,44.60
2023-01-19T17:41:30.207Z,53.20
2023-01-19T17:43:59.259Z,50.97
2023-01-19T17:46:29.585Z,48.15
2023-01-19T17:48:58.717Z,54.83
2023-01-19T17:51:26.582Z,51.97
2023-01-19T17:53:54.622Z,40.70
2023-01-19T17:56:29.889Z,40.95
2023-01-19T17:58:57.945Z,42.58
2023-01-19T18:01:30.486Z,36.45
2023-01-19T18:03:58.375Z,40.63
2023-01-19T18:06:25.594Z,38.95
2023-01-19T18:08:53.184Z,42.63
2023-01-19T18:11:21.549Z,38.20
2023-01-19T18:13:50.229Z,41.42
2023-01-19T18:16:21.542Z,44.92
2023-01-19T18:18:49.906Z,38.88
2023-01-19T18:21:17.942Z,49.15
2023-01-19T18:23:45.764Z,47.80
2023-01-19T18:26:15.856Z,49.90
2023-01-19T18:28:42.765Z,42.67
2023-01-19T18:31:11.621Z,41.58
2023-01-19T18:33:39.060Z,44.10
2023-01-19T18:36:06.657Z,40.83
2023-01-19T18:38:34.569Z,40.55
2023-01-19T18:41:06.428Z,41.33
2023-01-19T18:43:33.718Z,37.83
2023-01-19T18:46:00.786Z,38.72
2023-01-19T18:48:27.712Z,44.72
2023-01-19T18:50:54.679Z,40.55
2023-01-19T18:53:22.041Z,40.78
2023-01-19T18:55:57.364Z,42.80
2023-01-19T18:58:25.179Z,41.38
2023-01-19T19:00:52.117Z,40.03
2023-01-19T19:03:19.042Z,44.17
2023-01-19T19:05:45.989Z,187.85
2023-01-19T19:08:13.020Z,64.30
2023-01-19T19:10:43.570Z,72.00
2023-01-19T19:13:14.729Z,73.60
2023-01-19T19:15:41.661Z,67.10
2023-01-19T19:18:09.086Z,49.03
2023-01-19T19:20:39.669Z,47.85
2023-01-19T19:23:06.580Z,49.90
2023-01-19T19:25:33.989Z,44.75
2023-01-19T19:28:00.894Z,45.72
2023-01-19T19:30:30.576Z,45.78
2023-01-19T19:32:59.044Z,42.90
2023-01-19T19:35:26.352Z,38.92
2023-01-19T19:37:57.668Z,36.10
2023-01-19T19:40:28.209Z,41.88
2023-01-19T19:42:56.970Z,42.67
2023-01-19T19:45:27.746Z,47.13
2023-01-19T19:47:54.681Z,46.50
2023-01-19T19:50:21.573Z,43.28
2023-01-19T19:52:48.502Z,48.50
2023-01-19T19:55:15.499Z,48.03
2023-01-19T19:57:42.399Z,51.40
2023-01-19T20:00:10.028Z,52.78
2023-01-19T20:02:37.154Z,53.08
2023-01-19T20:05:05.164Z,175.80
2023-01-19T20:07:32.779Z,52.22
2023-01-19T20:10:01.883Z,47.47
2023-01-19T20:12:28.818Z,47.00
2023-01-19T20:14:55.763Z,50.15
2023-01-19T20:17:23.293Z,50.38
2023-01-19T20:19:50.434Z,54.65
2023-01-19T20:22:17.380Z,49.50
2023-01-19T20:24:44.620Z,62.55
2023-01-19T20:27:11.480Z,58.22
2023-01-19T20:29:38.467Z,51.45
2023-01-19T20:32:05.425Z,67.28
2023-01-19T20:34:33.813Z,58.65
2023-01-19T20:37:04.809Z,54.33
2023-01-19T20:42:01.089Z,88.60
2023-01-19T20:44:28.144Z,93.13
2023-01-19T20:46:55.598Z,96.95
2023-01-19T20:49:22.894Z,92.70
2023-01-19T20:51:52.025Z,79.90
2023-01-19T20:54:21.890Z,94.55
2023-01-19T20:56:48.992Z,72.18
2023-01-19T20:59:16.256Z,95.40
2023-01-19T21:01:48.692Z,147.45
2023-01-19T21:04:18.731Z,172.88
2023-01-19T21:06:45.763Z,127.10
2023-01-19T21:09:12.753Z,133.65
2023-01-19T21:11:40.329Z,96.70
2023-01-19T21:14:07.272Z,150.48
2023-01-19T21:16:35.454Z,153.45
2023-01-19T21:19:02.722Z,72.68
2023-01-19T21:21:32.700Z,95.88
2023-01-19T21:24:01.027Z,157.23
2023-01-19T21:26:31.632Z,64.80
2023-01-19T21:28:59.886Z,150.40
2023-01-19T21:31:28.074Z,136.23
2023-01-19T21:33:57.795Z,107.90
2023-01-19T21:36:27.079Z,100.57
2023-01-19T21:39:00.282Z,112.88
2023-01-19T21:41:28.398Z,61.08
2023-01-19T21:43:55.367Z,86.07
2023-01-19T21:46:32.730Z,94.65
2023-01-19T21:49:01.611Z,126.82
2023-01-19T21:51:33.863Z,187.95
2023-01-19T21:54:01.939Z,94.45
2023-01-19T21:56:31.405Z,70.00
2023-01-19T21:59:02.291Z,52.83
2023-01-19T22:03:58.792Z,82.68
2023-01-19T22:06:26.669Z,52.63
2023-01-19T22:08:58.431Z,98.25
2023-01-19T22:11:25.522Z,124.00
2023-01-19T22:13:52.667Z,98.93
2023-01-19T22:16:23.172Z,58.05
2023-01-19T22:18:54.131Z,74.63
2023-01-19T22:21:23.367Z,98.10
2023-01-19T22:23:51.738Z,53.58
2023-01-19T22:26:19.387Z,143.10
2023-01-19T22:28:46.497Z,57.05
2023-01-19T22:31:18.375Z,44.63
2023-01-19T22:33:45.569Z,60.90
2023-01-19T22:36:19.803Z,70.80
2023-01-19T22:39:08.822Z,71.18
2023-01-19T22:41:53.975Z,64.88
2023-01-19T22:44:36.208Z,56.30
2023-01-19T22:47:03.079Z,49.88
2023-01-19T22:49:29.994Z,52.53
2023-01-19T22:51:57.405Z,44.30
2023-01-19T22:54:24.309Z,52.72
2023-01-19T22:56:51.183Z,39.80
2023-01-19T22:59:18.067Z,58.20
2023-01-19T23:01:45.087Z,43.70
2023-01-19T23:04:14.612Z,44.00
2023-01-19T23:06:42.109Z,36.38
2023-01-19T23:09:12.782Z,40.55
2023-01-19T23:11:42.388Z,38.83
2023-01-19T23:14:15.690Z,36.83
2023-01-19T23:16:42.572Z,36.83
2023-01-19T23:19:11.550Z,41.33
2023-01-19T23:21:38.422Z,33.17
2023-01-19T23:24:05.877Z,32.45
2023-01-19T23:26:39.122Z,43.80
2023-01-19T23:29:13.158Z,36.55
2023-01-19T23:31:44.009Z,41.55
2023-01-19T23:36:42.714Z,48.08
2023-01-19T23:39:16.566Z,51.90
2023-01-19T23:41:43.481Z,67.57
2023-01-19T23:44:10.538Z,53.03
2023-01-19T23:46:37.453Z,54.35
2023-01-19T23:49:04.437Z,54.45
2023-01-19T23:51:32.614Z,64.50
2023-01-19T23:54:00.394Z,59.92
2023-01-19T23:56:37.582Z,72.28
2023-01-19T23:59:10.231Z,53.60
